createdAt,value
2019-02-05T00:04:46.788Z,96504.00
2019-02-05T00:10:16.644Z,96499.00
2019-02-05T00:15:46.050Z,96505.00
2019-02-05T00:21:15.487Z,96500.00
2019-02-05T00:26:44.901Z,96499.00
2019-02-05T00:32:14.413Z,96493.00
2019-02-05T00:37:43.986Z,96495.00
2019-02-05T00:43:13.398Z,96477.00
2019-02-05T00:48:42.811Z,96487.00
2019-02-05T00:54:14.196Z,96487.00
2019-02-05T00:59:43.647Z,96495.00
2019-02-05T01:05:13.398Z,96497.00
2019-02-05T01:10:42.800Z,96485.00
2019-02-05T01:16:12.273Z,96483.00
2019-02-05T01:21:41.951Z,96470.00
2019-02-05T01:27:11.474Z,96472.00
2019-02-05T01:32:40.978Z,96466.00
2019-02-05T01:38:10.551Z,96465.00
2019-02-05T01:43:39.992Z,96460.00
2019-02-05T01:49:09.685Z,96461.00
2019-02-05T01:54:39.008Z,96460.00
2019-02-05T02:00:15.778Z,96457.00
2019-02-05T02:05:45.479Z,96458.00
2019-02-05T02:11:14.885Z,96452.00
2019-02-05T02:16:45.572Z,96452.00
2019-02-05T02:22:15.282Z,96449.00
2019-02-05T02:27:45.003Z,96451.00
2019-02-05T02:33:14.503Z,96447.00
2019-02-05T02:38:44.037Z,96460.00
2019-02-05T02:44:13.435Z,96452.00
2019-02-05T02:49:42.902Z,96452.00
2019-02-05T02:55:12.379Z,96461.00
2019-02-05T03:00:41.989Z,96465.00
2019-02-05T03:06:11.715Z,96459.00
2019-02-05T03:11:41.050Z,96467.00
2019-02-05T03:17:10.523Z,96464.00
2019-02-05T03:22:40.003Z,96466.00
2019-02-05T03:28:09.421Z,96479.00
2019-02-05T03:33:38.870Z,96472.00
2019-02-05T03:39:08.782Z,96480.00
2019-02-05T03:44:38.270Z,96477.00
2019-02-05T03:50:07.837Z,96466.00
2019-02-05T03:55:50.891Z,96476.00
2019-02-05T04:01:50.680Z,96479.00
2019-02-05T04:07:36.926Z,96464.00
2019-02-05T04:13:29.332Z,96463.00
2019-02-05T04:19:09.174Z,96473.00
2019-02-05T04:25:19.416Z,96455.00
2019-02-05T04:31:05.273Z,96462.00
2019-02-05T04:37:08.877Z,96448.00
2019-02-05T04:42:48.663Z,96460.00
2019-02-05T04:48:36.983Z,96460.00
2019-02-05T04:54:46.003Z,96456.00
2019-02-05T05:00:41.183Z,96459.00
2019-02-05T05:06:45.620Z,96452.00
2019-02-05T05:12:15.118Z,96445.00
2019-02-05T05:17:48.580Z,96448.00
2019-02-05T05:23:18.547Z,96443.00
2019-02-05T05:28:48.174Z,96454.00
2019-02-05T05:34:17.611Z,96465.00
2019-02-05T05:39:46.959Z,96477.00
2019-02-05T05:45:16.959Z,96475.00
2019-02-05T05:50:46.320Z,96470.00
2019-02-05T05:56:15.913Z,96476.00
2019-02-05T06:01:45.369Z,96474.00
2019-02-05T06:07:15.288Z,96467.00
2019-02-05T06:12:44.915Z,96479.00
2019-02-05T06:18:21.892Z,96477.00
2019-02-05T06:23:51.747Z,96485.00
2019-02-05T06:29:23.104Z,96484.00
2019-02-05T06:35:00.735Z,96495.00
2019-02-05T06:40:30.328Z,96510.00
2019-02-05T06:46:06.827Z,96501.00
2019-02-05T06:51:37.418Z,96521.00
2019-02-05T06:57:07.162Z,96523.00
2019-02-05T07:02:43.169Z,96536.00
2019-02-05T07:08:14.070Z,96535.00
2019-02-05T07:13:53.660Z,96551.00
2019-02-05T07:19:23.487Z,96550.00
2019-02-05T07:24:53.789Z,96548.00
2019-02-05T07:30:27.187Z,96554.00
2019-02-05T07:35:56.950Z,96558.00
2019-02-05T07:41:28.961Z,96564.00
2019-02-05T07:46:58.969Z,96564.00
2019-02-05T07:52:29.386Z,96576.00
2019-02-05T07:57:59.460Z,96582.00
2019-02-05T08:03:29.534Z,96591.00
2019-02-05T08:08:59.319Z,96599.00
2019-02-05T08:14:29.193Z,96611.00
2019-02-05T08:19:58.758Z,96609.00
2019-02-05T08:25:28.676Z,96623.00
2019-02-05T08:30:58.337Z,96616.00
2019-02-05T08:36:27.936Z,96625.00
2019-02-05T08:41:57.680Z,96611.00
2019-02-05T08:47:27.327Z,96613.00
2019-02-05T08:52:57.281Z,96608.00
2019-02-05T08:58:31.081Z,96619.00
2019-02-05T09:03:58.572Z,96630.00
2019-02-05T09:09:28.386Z,96625.00
2019-02-05T09:14:58.063Z,96632.00
2019-02-05T09:20:27.831Z,96634.00
2019-02-05T09:25:57.591Z,96640.00
2019-02-05T09:31:27.427Z,96639.00
2019-02-05T09:36:57.201Z,96642.00
2019-02-05T09:42:27.080Z,96641.00
2019-02-05T09:47:56.933Z,96640.00
2019-02-05T09:53:26.853Z,96642.00
2019-02-05T09:58:56.593Z,96660.00
2019-02-05T10:04:26.219Z,96659.00
2019-02-05T10:09:55.944Z,96674.00
2019-02-05T10:15:32.112Z,96663.00
2019-02-05T10:21:02.080Z,96665.00
2019-02-05T10:26:31.993Z,96662.00
2019-02-05T10:32:01.783Z,96670.00
2019-02-05T10:37:31.672Z,96656.00
2019-02-05T10:43:02.070Z,96659.00
2019-02-05T10:48:31.590Z,96655.00
2019-02-05T10:54:01.403Z,96639.00
2019-02-05T10:59:31.551Z,96629.00
2019-02-05T11:05:01.608Z,96627.00
2019-02-05T11:10:31.342Z,96623.00
2019-02-05T11:16:00.853Z,96633.00
2019-02-05T11:21:30.606Z,96635.00
2019-02-05T11:27:00.597Z,96636.00
2019-02-05T11:32:30.345Z,96635.00
2019-02-05T11:38:00.127Z,96622.00
2019-02-05T11:43:29.722Z,96618.00
2019-02-05T11:48:59.360Z,96618.00
2019-02-05T11:54:29.177Z,96616.00
2019-02-05T11:59:58.935Z,96603.00
2019-02-05T12:05:28.740Z,96595.00
2019-02-05T12:10:58.975Z,96606.00
2019-02-05T12:16:28.909Z,96602.00
2019-02-05T12:21:58.638Z,96606.00
2019-02-05T12:27:28.405Z,96616.00
2019-02-05T12:33:01.917Z,96627.00
2019-02-05T12:38:31.185Z,96625.00
2019-02-05T12:44:00.812Z,96616.00
2019-02-05T12:49:30.392Z,96615.00
2019-02-05T12:55:12.741Z,96595.00
2019-02-05T13:00:38.195Z,96592.00
2019-02-05T13:06:07.819Z,96597.00
2019-02-05T13:11:37.268Z,96589.00
2019-02-05T13:17:07.005Z,96597.00
2019-02-05T13:22:36.413Z,96606.00
2019-02-05T13:28:08.675Z,96601.00
2019-02-05T13:33:38.221Z,96605.00
2019-02-05T13:39:11.569Z,96605.00
2019-02-05T13:44:41.146Z,96615.00
2019-02-05T13:50:15.815Z,96635.00
2019-02-05T13:55:46.094Z,96636.00
2019-02-05T14:01:19.930Z,96634.00
2019-02-05T14:06:50.255Z,96641.00
2019-02-05T14:12:18.184Z,96637.00
2019-02-05T14:17:47.669Z,96648.00
2019-02-05T14:23:17.023Z,96648.00
2019-02-05T14:28:46.413Z,96654.00
2019-02-05T14:34:15.837Z,96651.00
2019-02-05T14:39:45.279Z,96659.00
2019-02-05T14:45:16.568Z,96665.00
2019-02-05T14:50:48.343Z,96656.00
2019-02-05T14:56:17.857Z,96657.00
2019-02-05T15:01:47.292Z,96660.00
2019-02-05T15:07:16.742Z,96656.00
2019-02-05T15:12:46.671Z,96657.00
2019-02-05T15:18:17.242Z,96661.00
2019-02-05T15:23:46.730Z,96665.00
2019-02-05T15:29:16.408Z,96664.00
2019-02-05T15:34:45.827Z,96647.00
2019-02-05T15:40:17.944Z,96658.00
2019-02-05T15:45:47.693Z,96643.00
2019-02-05T15:51:17.382Z,96639.00
2019-02-05T15:56:46.870Z,96644.00
2019-02-05T16:02:16.397Z,96651.00
2019-02-05T16:07:45.962Z,96644.00
2019-02-05T16:13:17.907Z,96642.00
2019-02-05T16:18:53.343Z,96639.00
2019-02-05T16:24:25.702Z,96641.00
2019-02-05T16:29:55.467Z,96640.00
2019-02-05T16:35:28.240Z,96637.00
2019-02-05T16:40:57.800Z,96637.00
2019-02-05T16:46:27.523Z,96655.00
2019-02-05T16:51:57.562Z,96651.00
2019-02-05T16:57:27.915Z,96649.00
2019-02-05T17:03:01.051Z,96648.00
2019-02-05T17:08:30.732Z,96650.00
2019-02-05T17:14:00.410Z,96654.00
2019-02-05T17:19:31.919Z,96649.00
2019-02-05T17:25:01.883Z,96638.00
2019-02-05T17:30:37.936Z,96645.00
2019-02-05T17:36:07.462Z,96652.00
2019-02-05T17:41:36.915Z,96655.00
2019-02-05T17:47:06.391Z,96663.00
2019-02-05T17:52:37.391Z,96654.00
2019-02-05T17:58:07.760Z,96652.00
2019-02-05T18:03:39.151Z,96655.00
2019-02-05T18:09:11.170Z,96663.00
2019-02-05T18:14:42.172Z,96671.00
2019-02-05T18:20:11.984Z,96667.00
2019-02-05T18:25:41.546Z,96679.00
2019-02-05T18:31:11.408Z,96673.00
2019-02-05T18:36:40.923Z,96673.00
2019-02-05T18:42:10.578Z,96665.00
2019-02-05T18:47:41.590Z,96667.00
2019-02-05T18:53:12.547Z,96675.00
2019-02-05T18:58:43.102Z,96678.00
2019-02-05T19:04:12.561Z,96681.00
2019-02-05T19:09:42.052Z,96680.00
2019-02-05T19:15:21.656Z,96683.00
2019-02-05T19:20:52.407Z,96688.00
2019-02-05T19:26:22.236Z,96692.00
2019-02-05T19:31:52.269Z,96703.00
2019-02-05T19:37:27.663Z,96706.00
2019-02-05T19:42:53.800Z,96711.00
2019-02-05T19:48:39.482Z,96703.00
2019-02-05T19:54:09.277Z,96716.00
2019-02-05T19:59:38.823Z,96714.00
2019-02-05T20:05:11.241Z,96722.00
2019-02-05T20:10:40.804Z,96735.00
2019-02-05T20:16:10.255Z,96730.00
2019-02-05T20:21:39.871Z,96736.00
2019-02-05T20:27:09.297Z,96718.00
2019-02-05T20:32:38.794Z,96708.00
2019-02-05T20:38:08.368Z,96709.00
2019-02-05T20:43:37.732Z,96711.00
2019-02-05T20:49:07.175Z,96706.00
2019-02-05T20:54:36.585Z,96709.00
2019-02-05T21:00:16.375Z,96701.00
2019-02-05T21:05:45.689Z,96715.00
2019-02-05T21:11:15.286Z,96713.00
2019-02-05T21:16:45.229Z,96707.00
2019-02-05T21:22:14.785Z,96703.00
2019-02-05T21:27:44.528Z,96710.00
2019-02-05T21:33:14.121Z,96719.00
2019-02-05T21:38:45.518Z,96720.00
2019-02-05T21:44:15.236Z,96718.00
2019-02-05T21:49:44.624Z,96713.00
2019-02-05T21:55:22.585Z,96716.00
2019-02-05T22:00:52.447Z,96708.00
2019-02-05T22:06:22.602Z,96702.00
2019-02-05T22:11:52.208Z,96695.00
2019-02-05T22:17:22.144Z,96694.00
2019-02-05T22:22:56.025Z,96685.00
2019-02-05T22:28:25.351Z,96682.00
2019-02-05T22:33:55.422Z,96697.00
2019-02-05T22:39:26.694Z,96695.00
2019-02-05T22:44:56.532Z,96696.00
2019-02-05T22:50:29.854Z,96699.00
2019-02-05T22:55:59.514Z,96684.00
2019-02-05T23:01:39.043Z,96685.00
2019-02-05T23:07:11.723Z,96683.00
2019-02-05T23:12:42.815Z,96676.00
2019-02-05T23:18:12.477Z,96662.00
2019-02-05T23:23:42.161Z,96656.00
2019-02-05T23:29:11.559Z,96648.00
2019-02-05T23:34:40.903Z,96663.00
2019-02-05T23:40:12.274Z,96662.00
2019-02-05T23:45:41.762Z,96661.00
2019-02-05T23:51:11.408Z,96660.00
2019-02-05T23:56:40.908Z,96650.00
